Time;durP1;ratioP1;P1;durP2;ratioP2;P2;SDS_P1;SDS_P2;PMS_P1;PMS_P2;Temp;Humidity;BMP_temperature;BMP_pressure;BME280_temperature;BME280_humidity;BME280_pressure;Samples;Min_cycle;Max_cycle;Signal;HPM_P1;HPM_P2
2023/02/08 00:01:51;;;;;;;31.90;20.53;;;-1.50;79.60;;;;;;6276003;28;20477;-61
2023/02/08 00:04:55;;;;;;;35.00;21.63;;;-1.60;79.60;;;;;;6277105;28;20477;-68
2023/02/08 00:07:59;;;;;;;32.20;21.50;;;-1.60;79.90;;;;;;6277221;28;20470;-67
2023/02/08 00:11:02;;;;;;;30.33;19.10;;;-1.60;80.30;;;;;;6276629;28;20954;-68
2023/02/08 00:14:05;;;;;;;27.87;19.10;;;-1.60;80.90;;;;;;6276810;28;20466;-66
2023/02/08 00:17:09;;;;;;;32.37;21.37;;;-1.60;81.00;;;;;;6276410;28;20474;-66
2023/02/08 00:20:14;;;;;;;27.27;19.60;;;-1.60;81.10;;;;;;6276740;28;20470;-63
2023/02/08 00:23:18;;;;;;;35.10;22.03;;;-1.70;81.50;;;;;;6276649;28;20466;-62
2023/02/08 00:26:21;;;;;;;29.47;19.23;;;-1.70;81.30;;;;;;6276060;28;20809;-62
2023/02/08 00:29:24;;;;;;;35.13;20.60;;;-1.70;81.80;;;;;;6275673;28;20474;-62
2023/02/08 00:32:27;;;;;;;34.80;20.17;;;-1.70;81.90;;;;;;6276033;28;20470;-62
2023/02/08 00:35:32;;;;;;;33.20;22.03;;;-1.70;82.20;;;;;;6275780;28;20985;-62
2023/02/08 00:38:36;;;;;;;32.80;21.47;;;-1.80;82.20;;;;;;6276067;28;20483;-62
2023/02/08 00:41:39;;;;;;;32.70;21.20;;;-1.80;82.40;;;;;;6266618;28;20910;-62
2023/02/08 00:44:42;;;;;;;34.83;20.93;;;-1.80;82.40;;;;;;6277333;28;20478;-62
2023/02/08 00:47:45;;;;;;;31.30;19.00;;;-1.70;82.60;;;;;;6277453;28;20474;-62
2023/02/08 00:50:59;;;;;;;32.37;20.13;;;-1.80;82.60;;;;;;6275617;28;20826;-62
2023/02/08 00:54:03;;;;;;;35.53;19.77;;;-1.70;82.90;;;;;;6275329;28;20466;-62
2023/02/08 00:57:06;;;;;;;28.77;19.17;;;-1.80;82.20;;;;;;6275842;28;20470;-62
2023/02/08 01:00:10;;;;;;;30.50;18.20;;;-1.80;82.80;;;;;;6275855;28;20477;-62
2023/02/08 01:03:14;;;;;;;31.80;20.13;;;-1.90;82.90;;;;;;6275544;28;20474;-61
2023/02/08 01:06:18;;;;;;;26.30;18.53;;;-1.90;83.30;;;;;;6275356;28;20934;-62
2023/02/08 01:09:21;;;;;;;28.80;19.17;;;-1.90;83.70;;;;;;6275233;28;20490;-62
2023/02/08 01:12:25;;;;;;;32.00;19.70;;;-2.00;84.10;;;;;;6275375;28;20945;-61
2023/02/08 01:15:28;;;;;;;24.80;17.03;;;-2.00;84.10;;;;;;6275037;28;20804;-61
2023/02/08 01:18:31;;;;;;;31.73;19.60;;;-2.00;84.20;;;;;;6275039;28;20942;-62
2023/02/08 01:21:38;;;;;;;31.10;18.97;;;-2.00;84.90;;;;;;6274934;28;20482;-62
2023/02/08 01:24:41;;;;;;;29.67;18.87;;;-2.00;85.00;;;;;;6275748;28;20820;-62
2023/02/08 01:27:44;;;;;;;31.20;17.33;;;-2.10;85.50;;;;;;6274931;28;20475;-61
2023/02/08 01:30:47;;;;;;;33.40;18.50;;;-2.10;85.90;;;;;;6274970;28;20470;-62
2023/02/08 01:33:51;;;;;;;27.60;18.77;;;-2.10;85.90;;;;;;6275356;28;20474;-61
2023/02/08 01:36:56;;;;;;;25.43;17.67;;;-2.10;85.80;;;;;;6275131;28;20478;-61
2023/02/08 01:39:59;;;;;;;28.67;18.60;;;-2.10;85.70;;;;;;6274200;28;20477;-61
2023/02/08 01:43:02;;;;;;;25.33;16.73;;;-2.20;85.60;;;;;;6274385;28;20470;-61
2023/02/08 01:46:05;;;;;;;29.67;19.90;;;-2.20;85.90;;;;;;6270089;28;20474;-61
2023/02/08 01:49:16;;;;;;;33.00;20.13;;;-2.10;85.90;;;;;;6274283;28;20500;-62
2023/02/08 01:52:25;;;;;;;32.03;18.73;;;-2.20;86.00;;;;;;6274660;28;20453;-61
2023/02/08 01:55:30;;;;;;;23.30;17.20;;;-2.20;86.20;;;;;;6274964;28;20423;-61
2023/02/08 01:58:38;;;;;;;28.60;18.90;;;-2.20;86.40;;;;;;6274809;28;20600;-62
2023/02/08 02:01:43;;;;;;;21.80;16.20;;;-2.30;86.90;;;;;;6274627;28;20466;-61
2023/02/08 02:04:47;;;;;;;27.87;17.67;;;-2.30;87.00;;;;;;6274627;28;20474;-61
2023/02/08 02:07:54;;;;;;;26.67;17.57;;;-2.30;87.10;;;;;;6274232;28;20470;-62
2023/02/08 02:10:57;;;;;;;25.50;16.20;;;-2.20;87.20;;;;;;6274286;28;20780;-61
2023/02/08 02:14:01;;;;;;;26.30;16.03;;;-2.30;87.70;;;;;;6274142;28;20560;-62
2023/02/08 02:17:05;;;;;;;28.20;17.70;;;-2.30;87.80;;;;;;6274461;28;20474;-61
2023/02/08 02:20:14;;;;;;;25.97;19.17;;;-2.30;87.60;;;;;;6274217;28;20587;-62
2023/02/08 02:23:51;;;;;;;25.67;18.33;;;-2.30;87.80;;;;;;6274539;28;20477;-62
2023/02/08 02:27:22;;;;;;;28.30;16.40;;;-2.40;87.70;;;;;;6277499;28;20481;-61
2023/02/08 02:30:45;;;;;;;36.80;19.43;;;-2.30;87.80;;;;;;6278648;28;20478;-61
2023/02/08 02:33:58;;;;;;;25.97;17.43;;;-2.40;87.80;;;;;;6279164;28;20463;-62
2023/02/08 02:37:09;;;;;;;27.07;19.03;;;-2.40;88.10;;;;;;6279102;28;20981;-62
2023/02/08 02:40:19;;;;;;;24.83;17.73;;;-2.40;88.60;;;;;;6278951;28;20474;-62
2023/02/08 02:43:41;;;;;;;28.10;16.30;;;-2.50;88.70;;;;;;6279268;28;20454;-61
2023/02/08 02:46:50;;;;;;;26.03;17.73;;;-2.50;89.20;;;;;;6280156;28;20462;-62
2023/02/08 02:49:59;;;;;;;28.60;16.47;;;-2.50;89.50;;;;;;6279071;28;20473;-61
2023/02/08 02:53:07;;;;;;;29.07;18.50;;;-2.50;89.30;;;;;;6279005;28;20481;-62
2023/02/08 02:56:15;;;;;;;26.63;18.30;;;-2.60;89.20;;;;;;6278849;28;20470;-62
2023/02/08 02:59:19;;;;;;;25.93;18.13;;;-2.60;89.10;;;;;;6278552;28;20786;-62
2023/02/08 03:02:23;;;;;;;27.43;19.27;;;-2.70;89.30;;;;;;6278613;28;20485;-62
2023/02/08 03:05:29;;;;;;;28.40;18.00;;;-2.60;89.40;;;;;;6278583;28;20481;-61
2023/02/08 03:09:04;;;;;;;24.90;16.07;;;-2.70;89.50;;;;;;6277991;28;20489;-61
2023/02/08 03:12:22;;;;;;;23.50;15.90;;;-2.60;90.20;;;;;;6278086;28;20470;-61
2023/02/08 03:15:35;;;;;;;23.50;16.13;;;-2.70;89.90;;;;;;6278616;28;20486;-61
2023/02/08 03:18:54;;;;;;;27.30;18.03;;;-2.70;90.00;;;;;;6277885;28;20489;-61
2023/02/08 03:22:02;;;;;;;26.63;17.97;;;-2.70;90.10;;;;;;6277883;28;20946;-61
2023/02/08 03:25:10;;;;;;;25.10;16.30;;;-2.80;90.30;;;;;;6278398;28;20922;-61
2023/02/08 03:28:20;;;;;;;26.67;17.67;;;-2.80;90.50;;;;;;6278601;28;20490;-62
2023/02/08 03:31:29;;;;;;;27.13;17.73;;;-2.80;90.60;;;;;;6278370;28;20802;-61
2023/02/08 03:34:44;;;;;;;21.23;16.07;;;-2.80;90.70;;;;;;6278037;28;20447;-61
2023/02/08 03:37:54;;;;;;;31.33;19.77;;;-2.80;90.80;;;;;;6277056;28;20985;-62
2023/02/08 03:41:02;;;;;;;27.87;15.93;;;-2.80;90.80;;;;;;6282793;28;20466;-61
2023/02/08 03:44:10;;;;;;;27.33;17.37;;;-2.90;90.70;;;;;;6279584;28;20482;-61
2023/02/08 03:47:19;;;;;;;28.33;18.00;;;-2.90;90.80;;;;;;6281374;28;20950;-61
2023/02/08 03:50:24;;;;;;;30.73;17.70;;;-3.00;90.90;;;;;;6277738;28;20816;-61
2023/02/08 03:53:31;;;;;;;27.07;17.00;;;-3.10;91.00;;;;;;6273148;28;20481;-61
2023/02/08 03:56:40;;;;;;;28.27;16.97;;;-3.10;91.20;;;;;;6276780;28;20981;-62
2023/02/08 03:59:48;;;;;;;27.37;16.80;;;-3.10;91.60;;;;;;6276837;28;20812;-61
2023/02/08 04:02:56;;;;;;;28.20;19.00;;;-3.00;91.60;;;;;;6276676;28;20950;-61
2023/02/08 04:05:59;;;;;;;28.93;16.23;;;-3.10;91.60;;;;;;6277102;28;20478;-61
2023/02/08 04:09:04;;;;;;;31.40;18.40;;;-3.10;91.80;;;;;;6276624;28;20467;-61
2023/02/08 04:12:08;;;;;;;25.60;15.80;;;-3.10;91.80;;;;;;6276301;28;20474;-61
2023/02/08 04:15:11;;;;;;;27.77;17.60;;;-3.10;92.20;;;;;;6276946;28;20478;-61
2023/02/08 04:18:14;;;;;;;25.07;15.53;;;-3.20;91.80;;;;;;6276786;28;20470;-62
2023/02/08 04:21:17;;;;;;;30.77;17.70;;;-3.20;91.90;;;;;;6277272;28;20481;-62
2023/02/08 04:24:22;;;;;;;24.67;15.50;;;-3.20;92.00;;;;;;6276028;28;20482;-62
2023/02/08 04:27:25;;;;;;;26.93;18.07;;;-3.20;92.20;;;;;;6276608;28;20544;-62
2023/02/08 04:30:28;;;;;;;25.47;18.07;;;-3.10;92.30;;;;;;6276193;28;20824;-62
2023/02/08 04:33:32;;;;;;;29.10;16.20;;;-3.10;92.30;;;;;;6276132;28;20872;-62
2023/02/08 04:36:35;;;;;;;25.60;16.03;;;-3.10;92.40;;;;;;6276190;28;20488;-62
2023/02/08 04:39:40;;;;;;;31.20;17.60;;;-3.10;92.50;;;;;;6275869;28;20470;-62
2023/02/08 04:42:43;;;;;;;26.40;17.60;;;-3.10;92.50;;;;;;6275975;28;20812;-62
2023/02/08 04:45:47;;;;;;;29.60;17.17;;;-3.00;92.50;;;;;;6275870;28;20474;-63
2023/02/08 04:48:50;;;;;;;32.27;16.23;;;-3.00;92.40;;;;;;6277120;28;20963;-62
2023/02/08 04:51:53;;;;;;;23.90;15.37;;;-3.00;92.80;;;;;;6277390;28;20470;-62
2023/02/08 04:54:58;;;;;;;28.20;18.77;;;-2.90;92.60;;;;;;6276380;28;20861;-62
2023/02/08 04:58:01;;;;;;;24.43;15.87;;;-2.90;92.50;;;;;;6275874;28;20479;-62
2023/02/08 05:01:06;;;;;;;20.60;12.93;;;-2.80;92.50;;;;;;6275470;28;20478;-62
2023/02/08 05:04:10;;;;;;;17.47;12.00;;;-2.70;92.30;;;;;;6275482;28;20474;-62
2023/02/08 05:07:13;;;;;;;18.60;12.00;;;-2.80;92.50;;;;;;6275496;28;20529;-62
2023/02/08 05:10:18;;;;;;;21.47;13.70;;;-2.80;92.00;;;;;;6275292;28;20493;-63
2023/02/08 05:13:21;;;;;;;20.37;14.30;;;-2.70;91.90;;;;;;6275205;28;20756;-61
2023/02/08 05:16:25;;;;;;;22.53;11.87;;;-2.60;91.90;;;;;;6275026;28;21034;-61
2023/02/08 05:19:28;;;;;;;21.93;11.90;;;-2.60;91.70;;;;;;6275297;28;20505;-62
2023/02/08 05:22:32;;;;;;;20.10;13.13;;;-2.40;91.50;;;;;;6275501;28;20512;-61
2023/02/08 05:25:38;;;;;;;16.90;12.50;;;-2.30;91.20;;;;;;6275491;28;20441;-61
2023/02/08 05:28:41;;;;;;;17.60;11.70;;;-2.30;90.80;;;;;;6274797;28;20473;-61
2023/02/08 05:31:44;;;;;;;17.00;11.90;;;-2.30;90.70;;;;;;6275174;28;20488;-61
2023/02/08 05:34:47;;;;;;;18.90;12.80;;;-2.20;90.70;;;;;;6274665;28;20950;-61
2023/02/08 05:37:50;;;;;;;17.93;12.50;;;-2.10;90.60;;;;;;6275071;28;20466;-62
2023/02/08 05:40:55;;;;;;;19.10;11.20;;;-2.10;90.40;;;;;;6274969;28;20933;-61
2023/02/08 05:43:58;;;;;;;20.83;11.63;;;-2.10;90.20;;;;;;6274510;28;20974;-62
2023/02/08 05:47:02;;;;;;;18.67;10.80;;;-2.10;90.00;;;;;;6275174;28;20470;-62
2023/02/08 05:50:06;;;;;;;17.10;12.67;;;-2.10;89.90;;;;;;6274771;28;20492;-62
2023/02/08 05:53:09;;;;;;;18.00;12.10;;;-2.00;89.20;;;;;;6275976;28;20477;-62
2023/02/08 05:56:14;;;;;;;20.27;13.53;;;-2.00;89.70;;;;;;6280328;28;20477;-62
2023/02/08 05:59:17;;;;;;;26.57;13.20;;;-2.00;90.00;;;;;;6275636;28;20529;-62
2023/02/08 06:02:20;;;;;;;21.97;13.10;;;-2.10;90.10;;;;;;6275464;28;20851;-62
2023/02/08 06:05:23;;;;;;;24.53;14.73;;;-2.00;90.20;;;;;;6275191;28;20485;-62
2023/02/08 06:08:27;;;;;;;17.57;12.47;;;-2.00;90.20;;;;;;6274645;28;20535;-62
2023/02/08 06:11:31;;;;;;;20.57;13.80;;;-1.80;90.40;;;;;;6274573;28;20477;-62
2023/02/08 06:14:35;;;;;;;18.90;14.90;;;-1.80;90.40;;;;;;6274587;28;20470;-62
2023/02/08 06:17:38;;;;;;;23.27;14.50;;;-1.70;90.30;;;;;;6274948;28;20466;-62
2023/02/08 06:20:41;;;;;;;23.63;14.93;;;-1.70;90.40;;;;;;6274665;28;20483;-62
2023/02/08 06:23:44;;;;;;;22.47;14.57;;;-1.70;90.20;;;;;;6274744;28;20466;-62
2023/02/08 06:26:49;;;;;;;24.80;14.37;;;-1.70;90.60;;;;;;6273790;28;20792;-62
2023/02/08 06:29:52;;;;;;;23.03;15.60;;;-1.60;90.30;;;;;;6272987;28;20482;-63
2023/02/08 06:32:55;;;;;;;27.37;17.60;;;-1.50;90.30;;;;;;6273684;28;20471;-62
2023/02/08 06:35:59;;;;;;;21.77;13.93;;;-1.40;90.40;;;;;;6273428;28;20798;-62
2023/02/08 06:39:03;;;;;;;29.80;17.00;;;-1.40;90.20;;;;;;6274659;28;20483;-63
2023/02/08 06:42:08;;;;;;;28.67;16.43;;;-1.40;90.20;;;;;;6274570;28;20469;-62
2023/02/08 06:45:11;;;;;;;24.83;14.53;;;-1.30;90.30;;;;;;6274707;28;20485;-62
2023/02/08 06:48:15;;;;;;;24.10;15.23;;;-1.20;90.20;;;;;;6274291;28;20792;-63
2023/02/08 06:51:18;;;;;;;24.07;14.30;;;-1.10;90.10;;;;;;6275362;28;20493;-62
2023/02/08 06:54:22;;;;;;;19.57;12.37;;;-1.10;89.60;;;;;;6274842;28;20478;-62
2023/02/08 06:57:27;;;;;;;20.43;10.20;;;-1.10;88.50;;;;;;6274455;28;20477;-62
2023/02/08 07:00:30;;;;;;;27.20;17.87;;;-1.10;87.00;;;;;;6274030;28;20477;-61
2023/02/08 07:03:33;;;;;;;19.00;12.13;;;-1.10;85.50;;;;;;6273888;28;20489;-61
2023/02/08 07:06:37;;;;;;;17.23;11.53;;;-1.10;85.20;;;;;;6274338;28;20470;-61
2023/02/08 07:09:40;;;;;;;13.87;11.00;;;-1.20;84.90;;;;;;6272994;28;20481;-61
2023/02/08 07:12:45;;;;;;;16.73;10.67;;;-1.30;84.90;;;;;;6275044;28;20473;-61
2023/02/08 07:15:48;;;;;;;20.47;10.73;;;-1.40;84.70;;;;;;6276365;28;20477;-61
2023/02/08 07:18:51;;;;;;;16.63;12.00;;;-1.30;84.80;;;;;;6277611;28;20484;-62
2023/02/08 07:21:55;;;;;;;17.70;11.93;;;-1.40;84.70;;;;;;6277640;28;20469;-61
2023/02/08 07:24:58;;;;;;;14.57;10.33;;;-1.40;84.80;;;;;;6277910;28;20799;-62
2023/02/08 07:28:03;;;;;;;16.17;10.70;;;-1.40;84.90;;;;;;6277494;28;20562;-61
2023/02/08 07:31:07;;;;;;;21.70;11.17;;;-1.30;85.40;;;;;;6278277;28;20793;-61
2023/02/08 07:34:11;;;;;;;18.27;12.30;;;-1.30;86.10;;;;;;6277518;28;21249;-61
2023/02/08 07:37:14;;;;;;;20.97;13.17;;;-1.20;85.70;;;;;;6277733;28;20536;-61
2023/02/08 07:40:17;;;;;;;17.50;10.50;;;-1.00;85.80;;;;;;6277739;28;20838;-61
2023/02/08 07:43:22;;;;;;;16.30;10.97;;;-0.70;85.40;;;;;;6279609;28;20450;-61
2023/02/08 07:46:27;;;;;;;16.70;10.53;;;-0.40;84.60;;;;;;6277876;28;20438;-61
2023/02/08 07:49:30;;;;;;;16.80;12.63;;;-0.20;82.70;;;;;;6277618;28;20474;-61
2023/02/08 07:52:33;;;;;;;14.70;11.10;;;0.00;82.00;;;;;;6277474;28;20493;-61
2023/02/08 07:55:36;;;;;;;16.77;11.30;;;0.20;81.30;;;;;;6277817;28;20454;-61
2023/02/08 07:58:41;;;;;;;15.10;11.53;;;0.40;79.80;;;;;;6277626;28;20788;-61
2023/02/08 08:01:44;;;;;;;18.43;12.43;;;0.50;79.10;;;;;;6277653;28;20466;-62
2023/02/08 08:04:47;;;;;;;18.23;11.93;;;0.60;78.80;;;;;;6277555;28;20526;-61
2023/02/08 08:07:50;;;;;;;16.97;12.27;;;0.70;78.70;;;;;;6276634;28;20466;-62
2023/02/08 08:10:56;;;;;;;19.90;12.77;;;0.90;78.40;;;;;;6279836;28;20477;-61
2023/02/08 08:14:00;;;;;;;17.20;12.47;;;1.00;77.00;;;;;;6283425;28;20473;-61
2023/02/08 08:17:03;;;;;;;19.27;13.37;;;1.10;77.10;;;;;;6277142;28;20485;-61
2023/02/08 08:20:08;;;;;;;16.63;13.03;;;1.20;76.50;;;;;;6276350;28;20477;-61
2023/02/08 08:23:11;;;;;;;25.43;16.47;;;1.50;75.90;;;;;;6275770;28;20782;-61
2023/02/08 08:26:16;;;;;;;22.50;12.50;;;1.50;74.90;;;;;;6276564;28;20466;-61
2023/02/08 08:29:21;;;;;;;20.70;13.10;;;1.70;74.30;;;;;;6276542;28;20482;-61
2023/02/08 08:32:24;;;;;;;21.80;13.60;;;1.70;73.70;;;;;;6276570;28;20463;-61
2023/02/08 08:35:28;;;;;;;21.50;13.80;;;1.70;73.40;;;;;;6276735;28;20477;-61
2023/02/08 08:38:31;;;;;;;17.13;11.70;;;1.60;73.10;;;;;;6276216;28;20981;-61
2023/02/08 08:41:35;;;;;;;17.93;12.67;;;1.50;72.60;;;;;;6275913;28;20477;-61
2023/02/08 08:44:40;;;;;;;20.50;11.63;;;1.30;72.80;;;;;;6276075;28;20467;-61
2023/02/08 08:47:43;;;;;;;20.70;12.50;;;1.20;73.80;;;;;;6276316;28;20802;-61
2023/02/08 08:50:46;;;;;;;19.77;12.87;;;1.20;74.40;;;;;;6275696;28;20793;-61
2023/02/08 08:53:51;;;;;;;19.53;12.50;;;1.20;74.60;;;;;;6276484;28;20474;-61
2023/02/08 08:56:54;;;;;;;20.30;13.60;;;1.40;74.50;;;;;;6276296;28;20470;-61
2023/02/08 08:59:59;;;;;;;19.70;13.47;;;1.40;74.00;;;;;;6275727;28;20489;-61
2023/02/08 09:03:02;;;;;;;18.83;13.63;;;1.50;74.10;;;;;;6275927;28;20481;-61
2023/02/08 09:06:05;;;;;;;22.43;13.43;;;1.60;73.40;;;;;;6275907;28;20557;-61
2023/02/08 09:09:09;;;;;;;20.47;13.90;;;1.60;72.50;;;;;;6275505;28;20474;-61
2023/02/08 09:12:13;;;;;;;19.90;13.00;;;1.80;72.80;;;;;;6271331;28;20520;-61
2023/02/08 09:15:17;;;;;;;16.87;13.07;;;2.20;71.50;;;;;;6275420;28;20776;-61
2023/02/08 09:18:21;;;;;;;20.23;12.83;;;2.50;70.10;;;;;;6276386;28;20532;-61
2023/02/08 09:21:25;;;;;;;18.70;12.00;;;2.90;68.50;;;;;;6275693;28;20477;-61
2023/02/08 09:24:28;;;;;;;17.80;12.93;;;3.20;67.10;;;;;;6275525;28;20466;-61
2023/02/08 09:27:31;;;;;;;16.20;12.07;;;3.60;65.60;;;;;;6275636;28;20474;-61
2023/02/08 09:30:36;;;;;;;21.83;14.93;;;4.20;63.70;;;;;;6275490;28;20485;-61
2023/02/08 09:33:39;;;;;;;19.40;13.50;;;4.60;61.40;;;;;;6274938;28;20471;-61
2023/02/08 09:36:42;;;;;;;22.47;12.93;;;4.80;58.90;;;;;;6275538;28;20469;-61
2023/02/08 09:39:46;;;;;;;18.23;13.27;;;5.00;59.10;;;;;;6274536;28;20817;-61
2023/02/08 09:42:57;;;;;;;20.27;13.30;;;5.20;58.00;;;;;;6275001;28;20992;-61
2023/02/08 09:46:08;;;;;;;17.20;12.37;;;5.40;56.60;;;;;;6274691;28;20748;-61
2023/02/08 09:49:18;;;;;;;19.07;13.83;;;5.40;56.10;;;;;;6274626;28;20475;-61
2023/02/08 09:52:26;;;;;;;16.97;13.10;;;5.50;55.30;;;;;;6274974;28;20477;-61
2023/02/08 09:55:35;;;;;;;25.37;14.60;;;5.80;54.60;;;;;;6275718;28;20427;-61
2023/02/08 09:58:41;;;;;;;19.73;13.20;;;6.00;54.00;;;;;;6274655;28;20469;-61
2023/02/08 10:01:46;;;;;;;18.30;12.87;;;6.30;52.90;;;;;;6274674;28;20463;-61
2023/02/08 10:04:57;;;;;;;18.83;12.70;;;6.40;52.60;;;;;;6274091;28;20911;-61
2023/02/08 10:08:01;;;;;;;15.83;12.07;;;6.50;52.20;;;;;;6274775;28;20919;-61
2023/02/08 10:11:21;;;;;;;23.83;13.97;;;6.80;51.40;;;;;;6274587;28;20485;-61
2023/02/08 10:14:49;;;;;;;17.30;13.50;;;6.80;50.80;;;;;;6270046;28;20482;-60
2023/02/08 10:18:23;;;;;;;17.10;14.17;;;6.70;50.10;;;;;;6274216;28;20513;-61
2023/02/08 10:21:44;;;;;;;23.33;14.37;;;6.60;50.40;;;;;;6282229;28;20467;-60
2023/02/08 10:25:08;;;;;;;21.30;14.23;;;6.40;50.00;;;;;;6285328;28;20776;-60
2023/02/08 10:28:28;;;;;;;16.37;11.77;;;5.90;50.40;;;;;;6276050;28;20481;-61
2023/02/08 10:31:44;;;;;;;18.20;13.87;;;5.30;51.20;;;;;;6274221;28;20454;-61
2023/02/08 10:34:53;;;;;;;22.07;14.30;;;4.70;52.10;;;;;;6273843;28;20801;-61
2023/02/08 10:37:57;;;;;;;15.50;12.73;;;4.30;53.00;;;;;;6274066;28;20867;-61
2023/02/08 10:41:03;;;;;;;16.23;11.00;;;4.20;54.30;;;;;;6273616;28;20481;-61
2023/02/08 10:44:18;;;;;;;18.27;13.00;;;4.10;53.90;;;;;;6273691;28;20470;-61
2023/02/08 10:47:35;;;;;;;23.33;13.10;;;3.90;53.90;;;;;;6276712;28;20481;-61
2023/02/08 10:50:41;;;;;;;19.33;12.90;;;3.90;54.80;;;;;;6279258;28;20837;-62
2023/02/08 10:53:45;;;;;;;19.03;12.67;;;4.00;54.50;;;;;;6279524;28;20972;-62
2023/02/08 10:56:56;;;;;;;17.80;13.00;;;4.10;54.80;;;;;;6279388;28;20466;-61
2023/02/08 11:00:02;;;;;;;16.87;12.20;;;4.10;54.50;;;;;;6278445;28;20466;-61
2023/02/08 11:03:16;;;;;;;16.10;11.00;;;4.20;54.40;;;;;;6278695;28;20470;-61
2023/02/08 11:06:27;;;;;;;17.43;12.60;;;4.20;54.70;;;;;;6278301;28;20988;-61
2023/02/08 11:09:31;;;;;;;19.90;12.57;;;4.30;54.70;;;;;;6278091;28;20930;-62
2023/02/08 11:12:35;;;;;;;18.97;14.13;;;4.20;54.00;;;;;;6278337;28;20479;-61
2023/02/08 11:15:43;;;;;;;19.83;13.10;;;4.00;54.10;;;;;;6278220;28;20469;-61
2023/02/08 11:18:49;;;;;;;21.13;12.33;;;3.90;54.70;;;;;;6278054;28;20485;-61
2023/02/08 11:21:55;;;;;;;15.30;13.10;;;3.70;54.80;;;;;;6277906;28;20466;-61
2023/02/08 11:25:01;;;;;;;18.17;12.57;;;3.80;55.20;;;;;;6278020;28;20479;-61
2023/02/08 11:28:06;;;;;;;15.30;11.93;;;3.80;55.20;;;;;;6277124;28;20478;-62
2023/02/08 11:31:18;;;;;;;17.60;12.43;;;3.80;55.10;;;;;;6278129;28;20477;-61
2023/02/08 11:34:25;;;;;;;22.27;15.07;;;3.90;55.50;;;;;;6277276;28;20546;-62
2023/02/08 11:37:29;;;;;;;17.60;12.87;;;4.10;55.60;;;;;;6277468;28;20732;-61
2023/02/08 11:40:36;;;;;;;14.83;11.90;;;4.20;55.10;;;;;;6277478;28;20479;-61
2023/02/08 11:43:39;;;;;;;14.77;11.70;;;4.30;54.80;;;;;;6277627;28;20423;-62
2023/02/08 11:46:47;;;;;;;16.10;10.90;;;4.40;54.70;;;;;;6277079;28;20786;-62
2023/02/08 11:49:53;;;;;;;20.57;14.60;;;4.50;54.30;;;;;;6276985;28;20777;-62
2023/02/08 11:53:00;;;;;;;15.27;11.87;;;4.40;54.30;;;;;;6277026;28;20462;-61
2023/02/08 11:56:17;;;;;;;20.63;16.93;;;4.50;54.30;;;;;;6277410;28;20494;-62
2023/02/08 11:59:23;;;;;;;20.83;14.23;;;4.70;54.00;;;;;;6277163;28;20478;-61
2023/02/08 12:02:35;;;;;;;20.20;12.80;;;4.80;53.80;;;;;;6277222;28;20770;-61
2023/02/08 12:05:45;;;;;;;15.40;11.30;;;4.90;53.70;;;;;;6277037;28;20476;-61
2023/02/08 12:09:02;;;;;;;14.83;12.20;;;4.90;53.50;;;;;;6276749;28;20478;-62
2023/02/08 12:12:13;;;;;;;14.23;11.47;;;5.00;53.70;;;;;;6276577;28;20486;-62
2023/02/08 12:15:25;;;;;;;16.80;12.40;;;4.90;53.40;;;;;;6276963;28;20481;-62
2023/02/08 12:18:48;;;;;;;17.60;10.97;;;5.00;53.10;;;;;;6276269;28;20977;-62
2023/02/08 12:21:57;;;;;;;15.03;11.40;;;5.00;52.50;;;;;;6276517;28;20485;-62
2023/02/08 12:25:19;;;;;;;20.07;12.60;;;4.90;52.70;;;;;;6276185;28;20466;-62
2023/02/08 12:28:35;;;;;;;17.57;11.83;;;4.80;52.90;;;;;;6277081;28;20473;-61
2023/02/08 12:31:52;;;;;;;15.27;11.87;;;4.70;53.30;;;;;;6280300;28;20445;-61
2023/02/08 12:35:17;;;;;;;15.93;14.30;;;4.80;53.40;;;;;;6277731;28;20474;-61
2023/02/08 12:42:33;;;;;;;14.87;10.93;;;5.00;52.70;;;;;;6275801;28;20536;-61
2023/02/08 12:45:51;;;;;;;15.23;10.57;;;4.80;52.90;;;;;;6275752;28;20565;-62
2023/02/08 12:49:07;;;;;;;15.07;11.10;;;4.80;53.00;;;;;;6275636;28;20497;-62
2023/02/08 12:52:21;;;;;;;14.53;10.90;;;4.80;53.20;;;;;;6275427;28;20478;-61
2023/02/08 12:55:28;;;;;;;14.93;11.53;;;5.10;53.30;;;;;;6276433;28;20502;-61
2023/02/08 12:58:38;;;;;;;12.40;9.13;;;5.30;52.50;;;;;;6276154;28;20478;-62
2023/02/08 13:01:45;;;;;;;11.77;9.00;;;5.50;51.90;;;;;;6276027;28;20415;-61
2023/02/08 13:04:52;;;;;;;11.93;9.50;;;5.70;50.90;;;;;;6276028;28;20492;-63
2023/02/08 13:08:02;;;;;;;10.33;8.60;;;5.70;50.60;;;;;;6275940;28;20481;-62
2023/02/08 13:11:10;;;;;;;12.70;9.50;;;5.70;50.60;;;;;;6275477;28;20474;-62
2023/02/08 13:14:32;;;;;;;12.90;10.60;;;5.70;50.50;;;;;;6276658;28;20475;-62
2023/02/08 13:17:44;;;;;;;13.90;9.43;;;5.80;50.40;;;;;;6275641;28;20475;-62
2023/02/08 13:20:51;;;;;;;11.77;10.10;;;6.10;50.30;;;;;;6275502;28;20466;-63
2023/02/08 13:23:55;;;;;;;10.33;9.13;;;6.40;49.60;;;;;;6271197;28;20470;-63
2023/02/08 13:26:58;;;;;;;10.43;8.60;;;6.80;48.60;;;;;;6275083;28;20842;-63
2023/02/08 13:30:03;;;;;;;12.37;8.23;;;7.10;48.10;;;;;;6274490;28;20481;-62
2023/02/08 13:33:16;;;;;;;11.63;8.97;;;8.30;47.60;;;;;;6274979;28;20485;-63
2023/02/08 13:36:24;;;;;;;14.97;8.87;;;10.10;44.40;;;;;;6274471;28;20477;-63
2023/02/08 13:39:34;;;;;;;11.83;9.13;;;12.80;39.70;;;;;;6274701;28;20563;-63
2023/02/08 13:42:41;;;;;;;10.33;8.63;;;15.50;35.00;;;;;;6274811;28;20962;-63
2023/02/08 13:45:51;;;;;;;8.87;7.30;;;17.30;29.10;;;;;;6275099;28;20478;-63
2023/02/08 13:48:56;;;;;;;9.40;7.50;;;18.50;26.90;;;;;;6274559;28;20483;-63
2023/02/08 13:52:01;;;;;;;9.33;8.00;;;20.40;24.40;;;;;;6275057;28;20484;-62
2023/02/08 13:55:49;;;;;;;8.87;7.67;;;21.90;22.90;;;;;;6274716;28;20226;-63
2023/02/08 13:59:01;;;;;;;10.97;9.27;;;22.60;21.10;;;;;;6239055;28;20230;-63
2023/02/08 14:02:28;;;;;;;10.83;9.07;;;22.70;20.20;;;;;;6274801;28;20542;-62
2023/02/08 14:05:44;;;;;;;8.53;7.30;;;21.30;19.60;;;;;;6274907;28;20568;-63
2023/02/08 14:08:55;;;;;;;8.73;7.60;;;18.80;21.20;;;;;;6274708;28;20664;-63
2023/02/08 14:12:03;;;;;;;8.60;7.70;;;17.40;21.80;;;;;;6274511;28;20242;-63
2023/02/08 14:15:28;;;;;;;8.70;7.87;;;17.30;22.50;;;;;;6274269;28;20477;-63
2023/02/08 14:18:32;;;;;;;11.23;7.70;;;17.20;23.00;;;;;;6274675;28;20474;-63
2023/02/08 14:21:39;;;;;;;9.23;8.33;;;16.80;23.20;;;;;;6275614;28;20969;-62
2023/02/08 14:24:47;;;;;;;10.50;9.50;;;15.60;23.40;;;;;;6279586;28;20466;-62
2023/02/08 14:27:53;;;;;;;9.00;7.17;;;13.80;25.20;;;;;;6279402;28;20466;-64
2023/02/08 14:30:59;;;;;;;13.57;10.33;;;12.60;26.10;;;;;;6279567;28;20466;-62
2023/02/08 14:34:04;;;;;;;12.87;7.70;;;11.20;27.80;;;;;;6279207;28;20987;-62
2023/02/08 14:37:27;;;;;;;10.10;8.20;;;9.90;30.00;;;;;;6279032;28;20469;-62
2023/02/08 14:40:49;;;;;;;22.20;13.40;;;9.20;31.30;;;;;;6279296;28;20458;-63
2023/02/08 14:43:53;;;;;;;23.03;11.10;;;8.60;32.90;;;;;;6280764;28;20459;-62
2023/02/08 14:46:56;;;;;;;8.00;7.17;;;7.80;33.90;;;;;;6279445;28;20477;-62
2023/02/08 14:50:12;;;;;;;8.43;6.00;;;7.40;35.20;;;;;;6278844;28;20764;-61
2023/02/08 14:53:25;;;;;;;8.80;6.77;;;7.00;36.00;;;;;;6278707;28;20969;-62
2023/02/08 14:56:31;;;;;;;6.50;5.40;;;6.50;36.80;;;;;;6279180;28;20470;-62
2023/02/08 14:59:37;;;;;;;8.13;6.10;;;6.20;37.40;;;;;;6278530;28;20482;-62
2023/02/08 15:02:44;;;;;;;7.30;6.03;;;6.00;38.00;;;;;;6278739;28;20474;-62
2023/02/08 15:06:15;;;;;;;6.83;5.10;;;5.80;38.50;;;;;;6278813;28;20470;-62
2023/02/08 15:09:22;;;;;;;6.73;6.00;;;5.60;38.90;;;;;;6276356;28;20568;-62
2023/02/08 15:12:29;;;;;;;10.07;7.50;;;5.40;39.50;;;;;;6278448;28;20785;-62
2023/02/08 15:15:35;;;;;;;7.90;6.50;;;5.10;40.10;;;;;;6278399;28;20481;-62
2023/02/08 15:18:39;;;;;;;11.53;7.00;;;4.90;40.90;;;;;;6271888;28;20481;-62
2023/02/08 15:21:43;;;;;;;7.47;5.90;;;4.70;40.70;;;;;;6260449;28;20781;-62
2023/02/08 15:24:51;;;;;;;12.13;6.97;;;4.60;41.30;;;;;;6278413;28;20541;-61
2023/02/08 15:27:57;;;;;;;8.53;7.33;;;4.50;41.80;;;;;;6275865;28;20471;-62
2023/02/08 15:31:03;;;;;;;7.50;5.77;;;4.20;42.30;;;;;;6278116;28;20466;-62
2023/02/08 15:34:10;;;;;;;11.97;6.20;;;4.20;42.90;;;;;;6276993;28;20494;-62
2023/02/08 15:37:17;;;;;;;11.77;9.03;;;3.90;43.60;;;;;;6277981;28;20471;-63
2023/02/08 15:40:26;;;;;;;8.20;7.33;;;3.70;44.30;;;;;;6277931;28;20473;-61
2023/02/08 15:43:31;;;;;;;8.57;6.47;;;3.50;44.90;;;;;;6277452;28;20442;-62
2023/02/08 15:46:35;;;;;;;9.90;7.40;;;3.50;45.30;;;;;;6277488;28;20787;-62
2023/02/08 15:49:42;;;;;;;7.90;6.37;;;3.40;45.50;;;;;;6276454;28;20490;-63
2023/02/08 15:52:48;;;;;;;7.23;6.30;;;3.40;46.20;;;;;;6277078;28;20478;-62
2023/02/08 15:55:55;;;;;;;10.73;7.90;;;3.20;46.40;;;;;;6276672;28;20477;-62
2023/02/08 15:59:01;;;;;;;10.53;7.30;;;3.20;46.80;;;;;;6276945;28;20478;-62
2023/02/08 16:02:23;;;;;;;7.40;6.57;;;3.20;47.00;;;;;;6277190;28;20481;-62